sensor_id;sensor_type;location;lat;lon;timestamp;P1;durP1;ratioP1;P2;durP2;ratioP2
67747;SDS011;54543;50.712;6.070;2023-07-22T00:02:22;8.55;;;4.38;;
67747;SDS011;54543;50.712;6.070;2023-07-22T00:04:48;5.88;;;4.00;;
67747;SDS011;54543;50.712;6.070;2023-07-22T00:07:14;7.07;;;4.25;;
67747;SDS011;54543;50.712;6.070;2023-07-22T00:09:40;5.53;;;3.60;;
67747;SDS011;54543;50.712;6.070;2023-07-22T00:12:07;6.30;;;4.00;;
67747;SDS011;54543;50.712;6.070;2023-07-22T00:14:33;8.05;;;4.40;;
67747;SDS011;54543;50.712;6.070;2023-07-22T00:16:59;6.75;;;4.15;;
67747;SDS011;54543;50.712;6.070;2023-07-22T00:19:25;7.10;;;4.43;;
67747;SDS011;54543;50.712;6.070;2023-07-22T00:21:50;7.18;;;4.35;;
67747;SDS011;54543;50.712;6.070;2023-07-22T00:24:17;6.10;;;4.22;;
67747;SDS011;54543;50.712;6.070;2023-07-22T00:26:43;6.72;;;4.50;;
67747;SDS011;54543;50.712;6.070;2023-07-22T00:29:09;8.15;;;5.00;;
67747;SDS011;54543;50.712;6.070;2023-07-22T00:31:34;7.35;;;4.63;;
67747;SDS011;54543;50.712;6.070;2023-07-22T00:34:00;7.30;;;4.50;;
67747;SDS011;54543;50.712;6.070;2023-07-22T00:36:26;7.07;;;4.10;;
67747;SDS011;54543;50.712;6.070;2023-07-22T00:38:51;9.05;;;4.90;;
67747;SDS011;54543;50.712;6.070;2023-07-22T00:41:19;6.78;;;4.28;;
67747;SDS011;54543;50.712;6.070;2023-07-22T00:43:45;6.25;;;3.75;;
67747;SDS011;54543;50.712;6.070;2023-07-22T00:46:10;6.88;;;4.32;;
67747;SDS011;54543;50.712;6.070;2023-07-22T00:48:36;7.30;;;4.35;;
67747;SDS011;54543;50.712;6.070;2023-07-22T00:51:03;6.43;;;4.07;;
67747;SDS011;54543;50.712;6.070;2023-07-22T00:53:28;6.88;;;3.92;;
67747;SDS011;54543;50.712;6.070;2023-07-22T00:55:54;8.77;;;4.80;;
67747;SDS011;54543;50.712;6.070;2023-07-22T00:58:20;7.25;;;4.40;;
67747;SDS011;54543;50.712;6.070;2023-07-22T01:00:46;7.07;;;4.47;;
67747;SDS011;54543;50.712;6.070;2023-07-22T01:03:11;8.45;;;4.20;;
67747;SDS011;54543;50.712;6.070;2023-07-22T01:05:38;6.75;;;3.88;;
67747;SDS011;54543;50.712;6.070;2023-07-22T01:08:04;7.00;;;4.53;;
67747;SDS011;54543;50.712;6.070;2023-07-22T01:10:31;6.78;;;4.10;;
67747;SDS011;54543;50.712;6.070;2023-07-22T01:12:56;6.43;;;4.18;;
67747;SDS011;54543;50.712;6.070;2023-07-22T01:15:23;8.30;;;4.07;;
67747;SDS011;54543;50.712;6.070;2023-07-22T01:17:50;7.53;;;4.03;;
67747;SDS011;54543;50.712;6.070;2023-07-22T01:20:16;7.65;;;4.40;;
67747;SDS011;54543;50.712;6.070;2023-07-22T01:22:50;7.95;;;4.10;;
67747;SDS011;54543;50.712;6.070;2023-07-22T01:25:18;7.78;;;4.50;;
67747;SDS011;54543;50.712;6.070;2023-07-22T01:27:47;9.60;;;4.30;;
67747;SDS011;54543;50.712;6.070;2023-07-22T01:30:13;6.90;;;4.40;;
67747;SDS011;54543;50.712;6.070;2023-07-22T01:32:39;7.28;;;4.32;;
67747;SDS011;54543;50.712;6.070;2023-07-22T01:35:05;7.80;;;4.93;;
67747;SDS011;54543;50.712;6.070;2023-07-22T01:37:33;7.68;;;4.55;;
67747;SDS011;54543;50.712;6.070;2023-07-22T01:39:58;7.68;;;4.50;;
67747;SDS011;54543;50.712;6.070;2023-07-22T01:42:24;9.85;;;4.60;;
67747;SDS011;54543;50.712;6.070;2023-07-22T01:44:50;6.20;;;3.78;;
67747;SDS011;54543;50.712;6.070;2023-07-22T01:47:15;8.20;;;4.68;;
67747;SDS011;54543;50.712;6.070;2023-07-22T01:49:41;5.75;;;3.53;;
67747;SDS011;54543;50.712;6.070;2023-07-22T01:52:07;7.55;;;4.65;;
67747;SDS011;54543;50.712;6.070;2023-07-22T01:54:32;6.65;;;4.00;;
67747;SDS011;54543;50.712;6.070;2023-07-22T01:56:58;7.45;;;4.55;;
67747;SDS011;54543;50.712;6.070;2023-07-22T01:59:24;6.65;;;4.30;;
67747;SDS011;54543;50.712;6.070;2023-07-22T02:01:50;6.97;;;4.63;;
67747;SDS011;54543;50.712;6.070;2023-07-22T02:04:16;6.53;;;3.85;;
67747;SDS011;54543;50.712;6.070;2023-07-22T02:06:42;6.55;;;4.00;;
67747;SDS011;54543;50.712;6.070;2023-07-22T02:09:07;7.20;;;4.32;;
67747;SDS011;54543;50.712;6.070;2023-07-22T02:11:38;7.50;;;4.47;;
67747;SDS011;54543;50.712;6.070;2023-07-22T02:14:04;6.57;;;3.58;;
67747;SDS011;54543;50.712;6.070;2023-07-22T02:16:33;6.68;;;4.47;;
67747;SDS011;54543;50.712;6.070;2023-07-22T02:19:00;6.90;;;4.43;;
67747;SDS011;54543;50.712;6.070;2023-07-22T02:21:25;8.60;;;5.03;;
67747;SDS011;54543;50.712;6.070;2023-07-22T02:23:51;6.95;;;3.80;;
67747;SDS011;54543;50.712;6.070;2023-07-22T02:26:16;6.18;;;3.75;;
67747;SDS011;54543;50.712;6.070;2023-07-22T02:28:42;7.68;;;4.13;;
67747;SDS011;54543;50.712;6.070;2023-07-22T02:31:08;7.13;;;3.95;;
67747;SDS011;54543;50.712;6.070;2023-07-22T02:33:33;6.40;;;3.70;;
67747;SDS011;54543;50.712;6.070;2023-07-22T02:35:59;6.95;;;3.20;;
67747;SDS011;54543;50.712;6.070;2023-07-22T02:38:25;7.40;;;4.22;;
67747;SDS011;54543;50.712;6.070;2023-07-22T02:40:50;5.82;;;3.60;;
67747;SDS011;54543;50.712;6.070;2023-07-22T02:43:16;6.05;;;3.55;;
67747;SDS011;54543;50.712;6.070;2023-07-22T02:45:41;7.88;;;4.07;;
67747;SDS011;54543;50.712;6.070;2023-07-22T02:48:07;7.43;;;4.28;;
67747;SDS011;54543;50.712;6.070;2023-07-22T02:50:32;6.13;;;3.65;;
67747;SDS011;54543;50.712;6.070;2023-07-22T02:52:58;7.68;;;4.47;;
67747;SDS011;54543;50.712;6.070;2023-07-22T02:55:24;8.60;;;3.83;;
67747;SDS011;54543;50.712;6.070;2023-07-22T02:57:50;5.78;;;3.70;;
67747;SDS011;54543;50.712;6.070;2023-07-22T03:00:16;6.90;;;4.25;;
67747;SDS011;54543;50.712;6.070;2023-07-22T03:02:49;8.73;;;4.15;;
67747;SDS011;54543;50.712;6.070;2023-07-22T03:05:16;9.55;;;4.32;;
67747;SDS011;54543;50.712;6.070;2023-07-22T03:07:42;6.88;;;4.47;;
67747;SDS011;54543;50.712;6.070;2023-07-22T03:10:08;8.05;;;4.78;;
67747;SDS011;54543;50.712;6.070;2023-07-22T03:12:34;7.78;;;4.53;;
67747;SDS011;54543;50.712;6.070;2023-07-22T03:15:00;6.60;;;3.92;;
67747;SDS011;54543;50.712;6.070;2023-07-22T03:17:26;6.53;;;4.10;;
67747;SDS011;54543;50.712;6.070;2023-07-22T03:19:52;7.20;;;4.07;;
67747;SDS011;54543;50.712;6.070;2023-07-22T03:22:18;7.10;;;3.90;;
67747;SDS011;54543;50.712;6.070;2023-07-22T03:24:44;9.55;;;4.85;;
67747;SDS011;54543;50.712;6.070;2023-07-22T03:27:10;5.97;;;4.07;;
67747;SDS011;54543;50.712;6.070;2023-07-22T03:29:36;6.00;;;4.03;;
67747;SDS011;54543;50.712;6.070;2023-07-22T03:32:02;7.68;;;4.10;;
67747;SDS011;54543;50.712;6.070;2023-07-22T03:34:29;6.68;;;4.22;;
67747;SDS011;54543;50.712;6.070;2023-07-22T03:36:55;6.53;;;3.80;;
67747;SDS011;54543;50.712;6.070;2023-07-22T03:39:21;7.03;;;4.10;;
67747;SDS011;54543;50.712;6.070;2023-07-22T03:41:46;6.28;;;3.90;;
67747;SDS011;54543;50.712;6.070;2023-07-22T03:44:12;6.47;;;3.60;;
67747;SDS011;54543;50.712;6.070;2023-07-22T03:46:37;7.30;;;4.28;;
67747;SDS011;54543;50.712;6.070;2023-07-22T03:49:03;6.47;;;3.97;;
67747;SDS011;54543;50.712;6.070;2023-07-22T03:51:29;6.93;;;4.03;;
67747;SDS011;54543;50.712;6.070;2023-07-22T03:53:55;7.07;;;3.80;;
67747;SDS011;54543;50.712;6.070;2023-07-22T03:56:20;8.32;;;4.32;;
67747;SDS011;54543;50.712;6.070;2023-07-22T03:58:48;8.32;;;4.40;;
67747;SDS011;54543;50.712;6.070;2023-07-22T04:01:14;7.93;;;4.28;;
67747;SDS011;54543;50.712;6.070;2023-07-22T04:03:40;6.55;;;4.28;;
67747;SDS011;54543;50.712;6.070;2023-07-22T04:06:06;8.30;;;3.65;;
67747;SDS011;54543;50.712;6.070;2023-07-22T04:08:31;6.55;;;3.85;;
67747;SDS011;54543;50.712;6.070;2023-07-22T04:10:57;5.80;;;3.58;;
67747;SDS011;54543;50.712;6.070;2023-07-22T04:13:23;8.02;;;4.70;;
67747;SDS011;54543;50.712;6.070;2023-07-22T04:15:50;6.13;;;3.80;;
67747;SDS011;54543;50.712;6.070;2023-07-22T04:18:16;8.05;;;4.28;;
67747;SDS011;54543;50.712;6.070;2023-07-22T04:20:43;5.35;;;3.30;;
67747;SDS011;54543;50.712;6.070;2023-07-22T04:23:08;6.43;;;3.92;;
67747;SDS011;54543;50.712;6.070;2023-07-22T04:25:43;7.90;;;4.97;;
67747;SDS011;54543;50.712;6.070;2023-07-22T04:28:10;7.72;;;4.70;;
67747;SDS011;54543;50.712;6.070;2023-07-22T04:30:36;6.07;;;3.95;;
67747;SDS011;54543;50.712;6.070;2023-07-22T04:33:03;6.25;;;4.07;;
67747;SDS011;54543;50.712;6.070;2023-07-22T04:35:31;9.10;;;5.18;;
67747;SDS011;54543;50.712;6.070;2023-07-22T04:37:57;8.52;;;4.90;;
67747;SDS011;54543;50.712;6.070;2023-07-22T04:40:23;8.55;;;4.60;;
67747;SDS011;54543;50.712;6.070;2023-07-22T04:42:50;8.05;;;4.32;;
67747;SDS011;54543;50.712;6.070;2023-07-22T04:45:16;7.85;;;4.32;;
67747;SDS011;54543;50.712;6.070;2023-07-22T04:47:43;7.50;;;4.18;;
67747;SDS011;54543;50.712;6.070;2023-07-22T04:50:12;6.90;;;4.20;;
67747;SDS011;54543;50.712;6.070;2023-07-22T04:52:38;7.13;;;4.53;;
67747;SDS011;54543;50.712;6.070;2023-07-22T04:55:04;8.07;;;4.28;;
67747;SDS011;54543;50.712;6.070;2023-07-22T04:57:34;6.97;;;4.13;;
67747;SDS011;54543;50.712;6.070;2023-07-22T05:00:01;8.18;;;4.55;;
67747;SDS011;54543;50.712;6.070;2023-07-22T05:02:31;6.43;;;3.85;;
67747;SDS011;54543;50.712;6.070;2023-07-22T05:04:57;5.80;;;3.35;;
67747;SDS011;54543;50.712;6.070;2023-07-22T05:07:23;5.97;;;3.38;;
67747;SDS011;54543;50.712;6.070;2023-07-22T05:09:49;5.10;;;3.10;;
67747;SDS011;54543;50.712;6.070;2023-07-22T05:12:14;5.40;;;3.10;;
67747;SDS011;54543;50.712;6.070;2023-07-22T05:14:40;5.25;;;2.97;;
67747;SDS011;54543;50.712;6.070;2023-07-22T05:17:06;6.25;;;3.80;;
67747;SDS011;54543;50.712;6.070;2023-07-22T05:19:31;4.68;;;2.90;;
67747;SDS011;54543;50.712;6.070;2023-07-22T05:21:57;5.78;;;3.22;;
67747;SDS011;54543;50.712;6.070;2023-07-22T05:24:22;5.88;;;3.70;;
67747;SDS011;54543;50.712;6.070;2023-07-22T05:26:48;4.63;;;2.80;;
67747;SDS011;54543;50.712;6.070;2023-07-22T05:29:13;6.55;;;3.75;;
67747;SDS011;54543;50.712;6.070;2023-07-22T05:31:39;5.07;;;3.00;;
67747;SDS011;54543;50.712;6.070;2023-07-22T05:34:05;5.72;;;3.13;;
67747;SDS011;54543;50.712;6.070;2023-07-22T05:36:30;5.75;;;3.08;;
67747;SDS011;54543;50.712;6.070;2023-07-22T05:38:56;5.75;;;2.90;;
67747;SDS011;54543;50.712;6.070;2023-07-22T05:41:22;5.22;;;3.67;;
67747;SDS011;54543;50.712;6.070;2023-07-22T05:43:48;6.22;;;3.35;;
67747;SDS011;54543;50.712;6.070;2023-07-22T05:46:14;5.10;;;3.10;;
67747;SDS011;54543;50.712;6.070;2023-07-22T05:48:39;7.05;;;4.35;;
67747;SDS011;54543;50.712;6.070;2023-07-22T05:51:05;6.78;;;3.65;;
67747;SDS011;54543;50.712;6.070;2023-07-22T05:53:31;6.32;;;3.95;;
67747;SDS011;54543;50.712;6.070;2023-07-22T05:55:57;7.70;;;4.07;;
67747;SDS011;54543;50.712;6.070;2023-07-22T05:58:23;7.70;;;4.43;;
67747;SDS011;54543;50.712;6.070;2023-07-22T06:00:48;6.93;;;4.38;;
67747;SDS011;54543;50.712;6.070;2023-07-22T06:03:16;6.97;;;3.80;;
67747;SDS011;54543;50.712;6.070;2023-07-22T06:05:42;6.80;;;4.10;;
67747;SDS011;54543;50.712;6.070;2023-07-22T06:08:08;7.30;;;4.60;;
67747;SDS011;54543;50.712;6.070;2023-07-22T06:10:33;7.28;;;4.07;;
67747;SDS011;54543;50.712;6.070;2023-07-22T06:12:59;6.80;;;3.80;;
67747;SDS011;54543;50.712;6.070;2023-07-22T06:15:24;5.70;;;3.60;;
67747;SDS011;54543;50.712;6.070;2023-07-22T06:17:50;8.05;;;4.32;;
67747;SDS011;54543;50.712;6.070;2023-07-22T06:20:15;7.65;;;4.55;;
67747;SDS011;54543;50.712;6.070;2023-07-22T06:22:41;8.57;;;4.70;;
67747;SDS011;54543;50.712;6.070;2023-07-22T06:25:06;7.95;;;4.43;;
67747;SDS011;54543;50.712;6.070;2023-07-22T06:27:33;6.63;;;4.53;;
67747;SDS011;54543;50.712;6.070;2023-07-22T06:29:59;6.80;;;4.57;;
67747;SDS011;54543;50.712;6.070;2023-07-22T06:32:25;8.07;;;4.97;;
67747;SDS011;54543;50.712;6.070;2023-07-22T06:34:50;7.78;;;4.03;;
67747;SDS011;54543;50.712;6.070;2023-07-22T06:37:16;6.75;;;3.90;;
67747;SDS011;54543;50.712;6.070;2023-07-22T06:39:41;8.77;;;5.25;;
67747;SDS011;54543;50.712;6.070;2023-07-22T06:42:07;7.55;;;4.30;;
67747;SDS011;54543;50.712;6.070;2023-07-22T06:44:32;6.45;;;3.95;;
67747;SDS011;54543;50.712;6.070;2023-07-22T06:46:58;7.68;;;4.72;;
67747;SDS011;54543;50.712;6.070;2023-07-22T06:49:23;7.90;;;4.88;;
67747;SDS011;54543;50.712;6.070;2023-07-22T06:51:49;7.18;;;4.68;;
67747;SDS011;54543;50.712;6.070;2023-07-22T06:54:14;7.43;;;4.63;;
67747;SDS011;54543;50.712;6.070;2023-07-22T06:56:40;10.13;;;5.47;;
67747;SDS011;54543;50.712;6.070;2023-07-22T06:59:06;8.05;;;4.85;;
67747;SDS011;54543;50.712;6.070;2023-07-22T07:01:32;10.68;;;5.95;;
67747;SDS011;54543;50.712;6.070;2023-07-22T07:03:57;8.52;;;5.35;;
67747;SDS011;54543;50.712;6.070;2023-07-22T07:06:23;7.18;;;4.95;;
67747;SDS011;54543;50.712;6.070;2023-07-22T07:08:48;8.82;;;5.75;;
67747;SDS011;54543;50.712;6.070;2023-07-22T07:11:14;6.63;;;4.60;;
67747;SDS011;54543;50.712;6.070;2023-07-22T07:13:40;9.00;;;6.03;;
67747;SDS011;54543;50.712;6.070;2023-07-22T07:19:01;9.20;;;6.03;;
67747;SDS011;54543;50.712;6.070;2023-07-22T07:21:27;7.45;;;4.93;;
67747;SDS011;54543;50.712;6.070;2023-07-22T07:23:53;9.25;;;6.25;;
67747;SDS011;54543;50.712;6.070;2023-07-22T07:26:20;7.68;;;5.50;;
67747;SDS011;54543;50.712;6.070;2023-07-22T07:28:46;7.68;;;4.78;;
67747;SDS011;54543;50.712;6.070;2023-07-22T07:31:13;9.05;;;4.97;;
67747;SDS011;54543;50.712;6.070;2023-07-22T07:33:38;8.32;;;5.00;;
67747;SDS011;54543;50.712;6.070;2023-07-22T07:36:04;9.07;;;5.20;;
67747;SDS011;54543;50.712;6.070;2023-07-22T07:38:30;11.77;;;7.80;;
67747;SDS011;54543;50.712;6.070;2023-07-22T07:40:56;9.57;;;6.00;;
67747;SDS011;54543;50.712;6.070;2023-07-22T07:43:26;11.18;;;6.13;;
67747;SDS011;54543;50.712;6.070;2023-07-22T07:46:34;6.97;;;4.72;;
67747;SDS011;54543;50.712;6.070;2023-07-22T07:48:45;9.60;;;5.38;;
67747;SDS011;54543;50.712;6.070;2023-07-22T07:51:13;7.93;;;5.22;;
67747;SDS011;54543;50.712;6.070;2023-07-22T07:53:40;8.52;;;5.30;;
67747;SDS011;54543;50.712;6.070;2023-07-22T07:56:10;6.63;;;4.63;;
67747;SDS011;54543;50.712;6.070;2023-07-22T07:58:37;9.70;;;6.53;;
67747;SDS011;54543;50.712;6.070;2023-07-22T08:01:03;8.32;;;5.32;;
67747;SDS011;54543;50.712;6.070;2023-07-22T08:03:29;6.78;;;4.38;;
67747;SDS011;54543;50.712;6.070;2023-07-22T08:05:55;7.32;;;4.72;;
67747;SDS011;54543;50.712;6.070;2023-07-22T08:08:21;7.78;;;4.90;;
67747;SDS011;54543;50.712;6.070;2023-07-22T08:10:47;7.82;;;4.60;;
67747;SDS011;54543;50.712;6.070;2023-07-22T08:13:13;7.68;;;4.63;;
67747;SDS011;54543;50.712;6.070;2023-07-22T08:15:39;5.70;;;3.63;;
67747;SDS011;54543;50.712;6.070;2023-07-22T08:18:06;7.45;;;4.40;;
67747;SDS011;54543;50.712;6.070;2023-07-22T08:20:32;6.65;;;4.40;;
67747;SDS011;54543;50.712;6.070;2023-07-22T08:22:58;5.38;;;3.80;;
67747;SDS011;54543;50.712;6.070;2023-07-22T08:25:23;8.32;;;4.28;;
67747;SDS011;54543;50.712;6.070;2023-07-22T08:27:49;6.18;;;3.83;;
67747;SDS011;54543;50.712;6.070;2023-07-22T08:30:14;5.28;;;3.60;;
67747;SDS011;54543;50.712;6.070;2023-07-22T08:32:40;7.18;;;4.80;;
67747;SDS011;54543;50.712;6.070;2023-07-22T08:35:06;6.95;;;4.63;;
67747;SDS011;54543;50.712;6.070;2023-07-22T08:37:32;9.13;;;4.15;;
67747;SDS011;54543;50.712;6.070;2023-07-22T08:39:57;6.80;;;4.30;;
67747;SDS011;54543;50.712;6.070;2023-07-22T08:42:23;6.80;;;4.45;;
67747;SDS011;54543;50.712;6.070;2023-07-22T08:44:51;6.22;;;4.20;;
67747;SDS011;54543;50.712;6.070;2023-07-22T08:47:21;5.15;;;3.53;;
67747;SDS011;54543;50.712;6.070;2023-07-22T08:49:51;7.03;;;3.78;;
67747;SDS011;54543;50.712;6.070;2023-07-22T08:52:18;5.60;;;3.78;;
67747;SDS011;54543;50.712;6.070;2023-07-22T08:54:44;5.57;;;3.72;;
67747;SDS011;54543;50.712;6.070;2023-07-22T08:57:14;6.97;;;4.28;;
67747;SDS011;54543;50.712;6.070;2023-07-22T08:59:40;5.63;;;3.78;;
67747;SDS011;54543;50.712;6.070;2023-07-22T09:02:08;7.68;;;5.20;;
67747;SDS011;54543;50.712;6.070;2023-07-22T09:04:37;4.93;;;3.40;;
67747;SDS011;54543;50.712;6.070;2023-07-22T09:07:02;6.60;;;4.80;;
67747;SDS011;54543;50.712;6.070;2023-07-22T09:09:28;5.55;;;3.92;;
67747;SDS011;54543;50.712;6.070;2023-07-22T09:11:54;6.28;;;4.03;;
67747;SDS011;54543;50.712;6.070;2023-07-22T09:14:20;6.20;;;4.35;;
67747;SDS011;54543;50.712;6.070;2023-07-22T09:16:47;5.60;;;3.83;;
67747;SDS011;54543;50.712;6.070;2023-07-22T09:19:12;5.35;;;3.78;;
67747;SDS011;54543;50.712;6.070;2023-07-22T09:21:38;5.00;;;3.20;;
67747;SDS011;54543;50.712;6.070;2023-07-22T09:24:26;5.38;;;4.07;;
67747;SDS011;54543;50.712;6.070;2023-07-22T09:26:53;4.22;;;3.03;;
67747;SDS011;54543;50.712;6.070;2023-07-22T09:29:32;5.97;;;3.33;;
67747;SDS011;54543;50.712;6.070;2023-07-22T09:32:01;4.15;;;2.85;;
67747;SDS011;54543;50.712;6.070;2023-07-22T09:34:28;4.60;;;3.15;;
67747;SDS011;54543;50.712;6.070;2023-07-22T09:36:57;4.30;;;2.88;;
67747;SDS011;54543;50.712;6.070;2023-07-22T09:39:29;5.77;;;2.70;;
67747;SDS011;54543;50.712;6.070;2023-07-22T09:41:55;4.03;;;2.53;;
67747;SDS011;54543;50.712;6.070;2023-07-22T09:44:21;5.07;;;2.95;;
67747;SDS011;54543;50.712;6.070;2023-07-22T09:46:48;3.75;;;2.65;;
67747;SDS011;54543;50.712;6.070;2023-07-22T09:49:15;4.50;;;3.03;;
67747;SDS011;54543;50.712;6.070;2023-07-22T09:51:42;4.28;;;3.15;;
67747;SDS011;54543;50.712;6.070;2023-07-22T09:54:08;5.32;;;3.40;;
67747;SDS011;54543;50.712;6.070;2023-07-22T09:56:44;4.40;;;2.78;;
67747;SDS011;54543;50.712;6.070;2023-07-22T09:59:11;4.00;;;2.75;;
67747;SDS011;54543;50.712;6.070;2023-07-22T10:01:37;5.22;;;2.85;;
67747;SDS011;54543;50.712;6.070;2023-07-22T10:04:04;5.45;;;2.92;;
67747;SDS011;54543;50.712;6.070;2023-07-22T10:06:30;4.38;;;3.03;;
67747;SDS011;54543;50.712;6.070;2023-07-22T10:08:58;3.80;;;2.45;;
67747;SDS011;54543;50.712;6.070;2023-07-22T10:18:11;5.28;;;3.22;;
67747;SDS011;54543;50.712;6.070;2023-07-22T10:20:38;4.78;;;2.63;;
67747;SDS011;54543;50.712;6.070;2023-07-22T10:23:04;4.32;;;3.22;;
67747;SDS011;54543;50.712;6.070;2023-07-22T10:25:32;4.95;;;3.20;;
67747;SDS011;54543;50.712;6.070;2023-07-22T10:27:58;5.15;;;2.63;;
67747;SDS011;54543;50.712;6.070;2023-07-22T10:30:24;4.82;;;2.55;;
67747;SDS011;54543;50.712;6.070;2023-07-22T10:32:53;4.28;;;3.00;;
67747;SDS011;54543;50.712;6.070;2023-07-22T10:35:25;4.25;;;2.45;;
67747;SDS011;54543;50.712;6.070;2023-07-22T10:38:11;4.15;;;2.90;;
67747;SDS011;54543;50.712;6.070;2023-07-22T10:40:45;4.93;;;2.85;;
67747;SDS011;54543;50.712;6.070;2023-07-22T10:43:12;4.22;;;2.63;;
67747;SDS011;54543;50.712;6.070;2023-07-22T10:45:41;4.05;;;2.40;;
67747;SDS011;54543;50.712;6.070;2023-07-22T10:48:11;4.47;;;2.50;;
67747;SDS011;54543;50.712;6.070;2023-07-22T10:50:51;4.07;;;2.75;;
67747;SDS011;54543;50.712;6.070;2023-07-22T10:54:00;4.22;;;2.80;;
67747;SDS011;54543;50.712;6.070;2023-07-22T11:11:53;3.35;;;2.38;;
67747;SDS011;54543;50.712;6.070;2023-07-22T11:14:25;3.63;;;2.40;;
67747;SDS011;54543;50.712;6.070;2023-07-22T11:16:58;4.03;;;2.60;;
67747;SDS011;54543;50.712;6.070;2023-07-22T11:19:26;4.38;;;2.50;;
67747;SDS011;54543;50.712;6.070;2023-07-22T11:21:52;3.50;;;2.58;;
67747;SDS011;54543;50.712;6.070;2023-07-22T11:24:19;5.03;;;2.58;;
67747;SDS011;54543;50.712;6.070;2023-07-22T11:26:46;4.47;;;2.58;;
67747;SDS011;54543;50.712;6.070;2023-07-22T11:29:12;4.80;;;2.67;;
67747;SDS011;54543;50.712;6.070;2023-07-22T11:31:42;4.43;;;2.70;;
67747;SDS011;54543;50.712;6.070;2023-07-22T11:34:11;3.70;;;2.70;;
67747;SDS011;54543;50.712;6.070;2023-07-22T11:36:42;3.28;;;2.20;;
67747;SDS011;54543;50.712;6.070;2023-07-22T11:39:09;4.10;;;2.63;;
67747;SDS011;54543;50.712;6.070;2023-07-22T11:41:39;3.90;;;2.53;;
67747;SDS011;54543;50.712;6.070;2023-07-22T11:44:06;5.25;;;2.78;;
67747;SDS011;54543;50.712;6.070;2023-07-22T11:49:31;4.07;;;2.60;;
67747;SDS011;54543;50.712;6.070;2023-07-22T11:52:04;3.08;;;2.25;;
67747;SDS011;54543;50.712;6.070;2023-07-22T11:54:40;4.03;;;2.50;;
67747;SDS011;54543;50.712;6.070;2023-07-22T11:59:40;3.95;;;2.70;;
67747;SDS011;54543;50.712;6.070;2023-07-22T12:02:19;4.10;;;2.45;;
67747;SDS011;54543;50.712;6.070;2023-07-22T12:05:05;3.03;;;2.38;;
67747;SDS011;54543;50.712;6.070;2023-07-22T12:07:31;3.45;;;2.53;;
67747;SDS011;54543;50.712;6.070;2023-07-22T12:09:59;4.68;;;3.10;;
67747;SDS011;54543;50.712;6.070;2023-07-22T12:12:33;5.15;;;3.13;;
67747;SDS011;54543;50.712;6.070;2023-07-22T12:15:03;5.13;;;3.42;;
67747;SDS011;54543;50.712;6.070;2023-07-22T12:17:30;4.00;;;2.65;;
67747;SDS011;54543;50.712;6.070;2023-07-22T12:20:08;4.75;;;2.90;;
67747;SDS011;54543;50.712;6.070;2023-07-22T12:22:34;3.60;;;2.45;;
67747;SDS011;54543;50.712;6.070;2023-07-22T12:24:59;4.95;;;3.00;;
67747;SDS011;54543;50.712;6.070;2023-07-22T12:27:25;4.07;;;2.75;;
67747;SDS011;54543;50.712;6.070;2023-07-22T12:29:50;3.90;;;2.38;;
67747;SDS011;54543;50.712;6.070;2023-07-22T12:32:16;3.63;;;2.65;;
67747;SDS011;54543;50.712;6.070;2023-07-22T12:34:41;4.18;;;2.60;;
67747;SDS011;54543;50.712;6.070;2023-07-22T12:37:07;3.17;;;2.30;;
67747;SDS011;54543;50.712;6.070;2023-07-22T12:39:32;3.80;;;2.67;;
67747;SDS011;54543;50.712;6.070;2023-07-22T12:41:58;5.20;;;3.35;;
67747;SDS011;54543;50.712;6.070;2023-07-22T12:44:23;4.85;;;2.78;;
67747;SDS011;54543;50.712;6.070;2023-07-22T12:46:49;4.53;;;2.92;;
67747;SDS011;54543;50.712;6.070;2023-07-22T12:49:14;3.70;;;2.55;;
67747;SDS011;54543;50.712;6.070;2023-07-22T12:51:39;3.53;;;2.47;;
67747;SDS011;54543;50.712;6.070;2023-07-22T12:54:05;3.47;;;2.20;;
67747;SDS011;54543;50.712;6.070;2023-07-22T12:56:30;3.75;;;2.90;;
67747;SDS011;54543;50.712;6.070;2023-07-22T12:58:56;5.03;;;2.60;;
67747;SDS011;54543;50.712;6.070;2023-07-22T13:01:21;5.03;;;3.17;;
67747;SDS011;54543;50.712;6.070;2023-07-22T13:03:47;4.03;;;3.08;;
67747;SDS011;54543;50.712;6.070;2023-07-22T13:06:12;4.50;;;2.60;;
67747;SDS011;54543;50.712;6.070;2023-07-22T13:08:38;5.30;;;3.13;;
67747;SDS011;54543;50.712;6.070;2023-07-22T13:11:03;4.07;;;2.20;;
67747;SDS011;54543;50.712;6.070;2023-07-22T13:13:29;3.35;;;2.22;;
67747;SDS011;54543;50.712;6.070;2023-07-22T13:15:54;4.35;;;2.40;;
67747;SDS011;54543;50.712;6.070;2023-07-22T13:18:20;5.07;;;2.42;;
67747;SDS011;54543;50.712;6.070;2023-07-22T13:20:46;4.90;;;3.45;;
67747;SDS011;54543;50.712;6.070;2023-07-22T13:23:11;4.30;;;2.72;;
67747;SDS011;54543;50.712;6.070;2023-07-22T13:25:37;3.90;;;2.58;;
67747;SDS011;54543;50.712;6.070;2023-07-22T13:28:02;4.15;;;2.58;;
67747;SDS011;54543;50.712;6.070;2023-07-22T13:30:28;3.95;;;2.65;;
67747;SDS011;54543;50.712;6.070;2023-07-22T13:32:54;4.32;;;3.15;;
67747;SDS011;54543;50.712;6.070;2023-07-22T13:35:21;5.18;;;2.45;;
67747;SDS011;54543;50.712;6.070;2023-07-22T13:37:47;3.42;;;2.30;;
67747;SDS011;54543;50.712;6.070;2023-07-22T13:40:13;3.45;;;2.60;;
67747;SDS011;54543;50.712;6.070;2023-07-22T13:42:38;3.00;;;2.30;;
67747;SDS011;54543;50.712;6.070;2023-07-22T13:45:04;3.65;;;2.53;;
67747;SDS011;54543;50.712;6.070;2023-07-22T13:47:31;3.08;;;2.28;;
67747;SDS011;54543;50.712;6.070;2023-07-22T13:49:56;4.38;;;2.35;;
67747;SDS011;54543;50.712;6.070;2023-07-22T13:52:22;3.58;;;2.22;;
67747;SDS011;54543;50.712;6.070;2023-07-22T13:54:47;4.55;;;2.58;;
67747;SDS011;54543;50.712;6.070;2023-07-22T13:57:13;3.40;;;2.45;;
67747;SDS011;54543;50.712;6.070;2023-07-22T13:59:39;3.47;;;2.25;;
67747;SDS011;54543;50.712;6.070;2023-07-22T14:02:04;3.92;;;2.30;;
67747;SDS011;54543;50.712;6.070;2023-07-22T14:04:30;4.90;;;2.38;;
67747;SDS011;54543;50.712;6.070;2023-07-22T14:06:56;5.60;;;2.13;;
67747;SDS011;54543;50.712;6.070;2023-07-22T14:09:22;2.95;;;2.22;;
67747;SDS011;54543;50.712;6.070;2023-07-22T14:11:47;3.25;;;1.95;;
67747;SDS011;54543;50.712;6.070;2023-07-22T14:14:13;4.57;;;2.30;;
67747;SDS011;54543;50.712;6.070;2023-07-22T14:16:38;3.85;;;2.15;;
67747;SDS011;54543;50.712;6.070;2023-07-22T14:19:04;3.50;;;2.40;;
67747;SDS011;54543;50.712;6.070;2023-07-22T14:21:29;4.72;;;2.17;;
67747;SDS011;54543;50.712;6.070;2023-07-22T14:23:55;3.42;;;2.05;;
67747;SDS011;54543;50.712;6.070;2023-07-22T14:26:21;3.30;;;1.92;;
67747;SDS011;54543;50.712;6.070;2023-07-22T14:28:47;3.78;;;2.33;;
67747;SDS011;54543;50.712;6.070;2023-07-22T14:31:12;4.25;;;2.33;;
67747;SDS011;54543;50.712;6.070;2023-07-22T14:33:37;3.70;;;2.15;;
67747;SDS011;54543;50.712;6.070;2023-07-22T14:36:03;3.13;;;2.50;;
67747;SDS011;54543;50.712;6.070;2023-07-22T14:38:29;3.40;;;2.13;;
67747;SDS011;54543;50.712;6.070;2023-07-22T14:40:55;2.90;;;2.20;;
67747;SDS011;54543;50.712;6.070;2023-07-22T14:43:20;4.28;;;2.55;;
67747;SDS011;54543;50.712;6.070;2023-07-22T14:45:46;5.57;;;4.22;;
67747;SDS011;54543;50.712;6.070;2023-07-22T14:48:11;7.50;;;4.95;;
67747;SDS011;54543;50.712;6.070;2023-07-22T14:50:37;5.28;;;3.63;;
67747;SDS011;54543;50.712;6.070;2023-07-22T14:53:02;5.05;;;3.00;;
67747;SDS011;54543;50.712;6.070;2023-07-22T14:55:28;4.93;;;2.85;;
67747;SDS011;54543;50.712;6.070;2023-07-22T14:57:54;4.25;;;2.97;;
67747;SDS011;54543;50.712;6.070;2023-07-22T15:00:19;4.47;;;2.90;;
67747;SDS011;54543;50.712;6.070;2023-07-22T15:02:45;4.35;;;2.78;;
67747;SDS011;54543;50.712;6.070;2023-07-22T15:05:10;3.42;;;2.25;;
67747;SDS011;54543;50.712;6.070;2023-07-22T15:07:36;4.57;;;2.25;;
67747;SDS011;54543;50.712;6.070;2023-07-22T15:10:02;4.43;;;2.13;;
67747;SDS011;54543;50.712;6.070;2023-07-22T15:12:28;3.45;;;2.40;;
67747;SDS011;54543;50.712;6.070;2023-07-22T15:14:54;4.00;;;3.03;;
67747;SDS011;54543;50.712;6.070;2023-07-22T15:17:19;4.13;;;3.22;;